Time;durP1;ratioP1;P1;durP2;ratioP2;P2;SDS_P1;SDS_P2;PMS_P1;PMS_P2;Temp;Humidity;BMP_temperature;BMP_pressure;BME280_temperature;BME280_humidity;BME280_pressure;Samples;Min_cycle;Max_cycle;Signal;HPM_P1;HPM_P2
2021/10/17 00:00:15;;;;;;;11.50;7.65;;;;;;;;;;5067067;28;20031;-53
2021/10/17 00:02:41;;;;;;;11.52;7.88;;;;;;;;;;5067031;28;20032;-52
2021/10/17 00:05:08;;;;;;;10.23;7.05;;;;;;;;;;5066631;28;20514;-52
2021/10/17 00:07:34;;;;;;;11.43;7.60;;;;;;;;;;5066630;28;20522;-53
2021/10/17 00:10:00;;;;;;;11.35;7.72;;;;;;;;;;5081119;28;20463;-54
2021/10/17 00:12:26;;;;;;;9.65;6.82;;;;;;;;;;5069996;28;20415;-53
2021/10/17 00:14:52;;;;;;;10.38;7.05;;;;;;;;;;5067482;28;20495;-53
2021/10/17 00:17:18;;;;;;;11.32;7.50;;;;;;;;;;5067663;28;20024;-53
2021/10/17 00:19:44;;;;;;;10.38;7.10;;;;;;;;;;5068733;28;20139;-52
2021/10/17 00:22:10;;;;;;;10.38;7.05;;;;;;;;;;5067758;28;21078;-51
2021/10/17 00:24:36;;;;;;;12.20;7.18;;;;;;;;;;5065510;28;20494;-52
2021/10/17 00:27:03;;;;;;;10.85;7.30;;;;;;;;;;5068121;28;20089;-51
2021/10/17 00:29:29;;;;;;;10.82;7.13;;;;;;;;;;5067631;28;20016;-53
2021/10/17 00:31:55;;;;;;;11.45;7.90;;;;;;;;;;5066833;28;20438;-54
2021/10/17 00:34:21;;;;;;;11.20;7.45;;;;;;;;;;5067410;28;20570;-53
2021/10/17 00:36:48;;;;;;;10.23;6.78;;;;;;;;;;5068421;28;20042;-53
2021/10/17 00:39:14;;;;;;;10.07;6.50;;;;;;;;;;5067442;28;20020;-53
2021/10/17 00:41:40;;;;;;;9.82;7.07;;;;;;;;;;5067670;28;20028;-54
2021/10/17 00:44:06;;;;;;;9.50;7.00;;;;;;;;;;5067122;28;20044;-54
2021/10/17 00:46:32;;;;;;;10.68;7.28;;;;;;;;;;5067498;28;20033;-54
2021/10/17 00:48:59;;;;;;;10.38;6.93;;;;;;;;;;5067395;28;20381;-54
2021/10/17 00:51:25;;;;;;;11.32;7.70;;;;;;;;;;5067256;28;20111;-53
2021/10/17 00:53:51;;;;;;;9.85;6.75;;;;;;;;;;5072270;28;20031;-52
2021/10/17 00:56:19;;;;;;;10.77;7.50;;;;;;;;;;5088165;28;20047;-54
2021/10/17 00:58:45;;;;;;;12.05;8.05;;;;;;;;;;5086491;28;20485;-54
2021/10/17 01:01:11;;;;;;;11.95;8.15;;;;;;;;;;5076523;28;20028;-53
2021/10/17 01:03:37;;;;;;;10.55;7.30;;;;;;;;;;5066653;28;20443;-54
2021/10/17 01:06:04;;;;;;;11.38;7.60;;;;;;;;;;5067048;28;20475;-53
2021/10/17 01:08:30;;;;;;;11.38;7.80;;;;;;;;;;5066886;28;20070;-53
2021/10/17 01:10:57;;;;;;;11.93;7.55;;;;;;;;;;5067151;28;20040;-54
2021/10/17 01:13:24;;;;;;;10.95;7.18;;;;;;;;;;5066171;28;20028;-52
2021/10/17 01:15:51;;;;;;;11.88;7.68;;;;;;;;;;5067337;28;20033;-54
2021/10/17 01:18:17;;;;;;;10.55;7.15;;;;;;;;;;5067566;28;20089;-53
2021/10/17 01:20:43;;;;;;;10.05;6.90;;;;;;;;;;5067006;28;20085;-54
2021/10/17 01:23:10;;;;;;;12.32;7.75;;;;;;;;;;5066790;28;20074;-54
2021/10/17 01:25:36;;;;;;;11.32;7.30;;;;;;;;;;5080574;28;20024;-53
2021/10/17 01:28:02;;;;;;;9.00;6.60;;;;;;;;;;5066645;28;20032;-54
2021/10/17 01:30:30;;;;;;;12.70;6.80;;;;;;;;;;5066326;28;20194;-54
2021/10/17 01:32:57;;;;;;;10.20;7.18;;;;;;;;;;5066754;28;20040;-51
2021/10/17 01:35:23;;;;;;;9.13;6.80;;;;;;;;;;5065597;28;20516;-54
2021/10/17 01:37:49;;;;;;;8.52;6.32;;;;;;;;;;5068614;28;20361;-55
2021/10/17 01:40:15;;;;;;;10.40;6.80;;;;;;;;;;5071343;28;20119;-54
2021/10/17 01:42:42;;;;;;;9.95;7.00;;;;;;;;;;5066353;28;20542;-55
2021/10/17 01:45:08;;;;;;;11.13;6.93;;;;;;;;;;5066531;28;20048;-53
2021/10/17 01:47:34;;;;;;;10.27;7.07;;;;;;;;;;5066173;28;20036;-54
2021/10/17 01:50:00;;;;;;;10.10;7.15;;;;;;;;;;5065019;28;20040;-54
2021/10/17 01:52:26;;;;;;;9.70;6.65;;;;;;;;;;5065323;28;20051;-54
2021/10/17 01:54:53;;;;;;;11.50;6.60;;;;;;;;;;5065624;28;20037;-54
2021/10/17 01:57:19;;;;;;;10.88;7.18;;;;;;;;;;5065980;28;20086;-54
2021/10/17 01:59:45;;;;;;;9.65;6.55;;;;;;;;;;5070249;28;20495;-54
2021/10/17 02:02:11;;;;;;;10.52;7.65;;;;;;;;;;5086022;28;20054;-53
2021/10/17 02:04:37;;;;;;;13.13;7.57;;;;;;;;;;5084481;28;20631;-54
2021/10/17 02:07:03;;;;;;;9.32;6.47;;;;;;;;;;5085770;28;20032;-53
2021/10/17 02:09:29;;;;;;;11.27;7.32;;;;;;;;;;5080175;28;20032;-53
2021/10/17 02:11:55;;;;;;;9.32;6.35;;;;;;;;;;5066309;28;20146;-54
2021/10/17 02:14:22;;;;;;;11.75;7.30;;;;;;;;;;5066227;28;20024;-53
2021/10/17 02:16:48;;;;;;;9.75;6.78;;;;;;;;;;5066829;28;20082;-53
2021/10/17 02:19:14;;;;;;;11.05;6.72;;;;;;;;;;5065760;28;20052;-54
2021/10/17 02:21:40;;;;;;;10.20;6.38;;;;;;;;;;5066008;28;20499;-53
2021/10/17 02:24:10;;;;;;;9.77;6.57;;;;;;;;;;5066165;28;20025;-54
2021/10/17 02:26:36;;;;;;;9.23;6.55;;;;;;;;;;5065727;28;20039;-52
2021/10/17 02:29:02;;;;;;;8.95;6.75;;;;;;;;;;5065955;28;20080;-53
2021/10/17 02:31:29;;;;;;;9.82;7.18;;;;;;;;;;5065966;28;20446;-53
2021/10/17 02:33:55;;;;;;;11.73;7.57;;;;;;;;;;5066385;28;20083;-53
2021/10/17 02:36:21;;;;;;;11.70;7.15;;;;;;;;;;5065845;28;20100;-54
2021/10/17 02:38:47;;;;;;;9.48;6.80;;;;;;;;;;5066976;28;20094;-54
2021/10/17 02:41:13;;;;;;;11.05;7.15;;;;;;;;;;5065529;28;20028;-53
2021/10/17 02:43:39;;;;;;;12.35;7.57;;;;;;;;;;5066209;28;20031;-53
2021/10/17 02:46:05;;;;;;;11.07;7.18;;;;;;;;;;5064518;28;20039;-53
2021/10/17 02:48:31;;;;;;;11.88;7.32;;;;;;;;;;5067835;28;20074;-53
2021/10/17 02:50:57;;;;;;;10.07;6.85;;;;;;;;;;5069519;28;20028;-53
2021/10/17 02:53:24;;;;;;;11.57;7.35;;;;;;;;;;5069295;28;20073;-52
2021/10/17 02:55:50;;;;;;;10.75;6.68;;;;;;;;;;5070170;28;20560;-54
2021/10/17 02:58:16;;;;;;;10.65;7.18;;;;;;;;;;5069879;28;20034;-54
2021/10/17 03:00:42;;;;;;;12.70;7.03;;;;;;;;;;5068832;28;20082;-52
2021/10/17 03:03:08;;;;;;;10.32;6.88;;;;;;;;;;5069717;28;20028;-53
2021/10/17 03:05:34;;;;;;;10.27;6.85;;;;;;;;;;5069367;28;20539;-54
2021/10/17 03:08:00;;;;;;;10.30;6.85;;;;;;;;;;5069305;28;20471;-54
2021/10/17 03:10:26;;;;;;;9.98;7.38;;;;;;;;;;5079467;28;20095;-54
2021/10/17 03:12:52;;;;;;;11.40;7.00;;;;;;;;;;5089873;28;20051;-55
2021/10/17 03:15:18;;;;;;;9.80;6.65;;;;;;;;;;5086723;28;20032;-54
2021/10/17 03:17:44;;;;;;;9.20;6.75;;;;;;;;;;5069400;28;20021;-54
2021/10/17 03:20:11;;;;;;;11.10;7.38;;;;;;;;;;5079287;28;20063;-54
2021/10/17 03:22:40;;;;;;;9.73;6.85;;;;;;;;;;5089485;28;20099;-51
2021/10/17 03:25:07;;;;;;;8.40;5.80;;;;;;;;;;5089182;28;20056;-51
2021/10/17 03:27:33;;;;;;;8.50;6.25;;;;;;;;;;5089389;28;20036;-53
2021/10/17 03:29:59;;;;;;;9.10;6.22;;;;;;;;;;5077657;28;20029;-53
2021/10/17 03:32:25;;;;;;;8.77;6.07;;;;;;;;;;5069291;28;20453;-53
2021/10/17 03:34:51;;;;;;;10.75;6.70;;;;;;;;;;5068578;28;20107;-54
2021/10/17 03:37:17;;;;;;;10.80;6.80;;;;;;;;;;5068885;28;20803;-53
2021/10/17 03:39:43;;;;;;;8.48;6.03;;;;;;;;;;5076442;28;20024;-53
2021/10/17 03:42:09;;;;;;;8.73;6.00;;;;;;;;;;5089029;28;20427;-54
2021/10/17 03:44:35;;;;;;;9.98;6.10;;;;;;;;;;5088833;28;20032;-54
2021/10/17 03:47:01;;;;;;;9.23;6.30;;;;;;;;;;5081960;28;20490;-54
2021/10/17 03:49:28;;;;;;;10.35;6.90;;;;;;;;;;5068025;28;20032;-54
2021/10/17 03:51:54;;;;;;;10.32;6.60;;;;;;;;;;5068667;28;20031;-53
2021/10/17 03:54:20;;;;;;;7.75;5.45;;;;;;;;;;5068892;28;20952;-53
2021/10/17 03:56:46;;;;;;;9.75;6.32;;;;;;;;;;5069378;28;20056;-54
2021/10/17 03:59:15;;;;;;;9.00;6.38;;;;;;;;;;5070334;28;21664;-53
2021/10/17 04:01:41;;;;;;;10.23;6.55;;;;;;;;;;5087999;28;20024;-53
2021/10/17 04:04:07;;;;;;;9.35;6.57;;;;;;;;;;5088506;28;20028;-53
2021/10/17 04:06:35;;;;;;;9.98;6.90;;;;;;;;;;5088451;28;20028;-54
2021/10/17 04:09:01;;;;;;;11.63;7.57;;;;;;;;;;5087499;28;20028;-53
2021/10/17 04:11:27;;;;;;;9.52;6.68;;;;;;;;;;5069888;28;20483;-53
2021/10/17 04:13:53;;;;;;;9.80;6.85;;;;;;;;;;5088561;28;20630;-54
2021/10/17 04:16:19;;;;;;;7.35;5.55;;;;;;;;;;5088767;28;21033;-54
2021/10/17 04:18:46;;;;;;;6.68;4.95;;;;;;;;;;5089065;28;20047;-53
2021/10/17 04:21:12;;;;;;;6.80;4.90;;;;;;;;;;5087319;28;20461;-53
2021/10/17 04:23:38;;;;;;;8.52;5.60;;;;;;;;;;5067937;28;20028;-54
2021/10/17 04:26:04;;;;;;;6.38;4.75;;;;;;;;;;5067871;28;20074;-54
2021/10/17 04:28:30;;;;;;;7.95;5.53;;;;;;;;;;5068038;28;20032;-53
2021/10/17 04:30:56;;;;;;;9.02;5.65;;;;;;;;;;5067776;28;20025;-52
2021/10/17 04:33:22;;;;;;;7.88;5.30;;;;;;;;;;5082199;28;20474;-54
2021/10/17 04:35:49;;;;;;;7.95;5.43;;;;;;;;;;5087699;28;20502;-54
2021/10/17 04:38:15;;;;;;;8.18;5.50;;;;;;;;;;5088038;28;20020;-53
2021/10/17 04:40:42;;;;;;;8.70;5.35;;;;;;;;;;5087922;28;20486;-53
2021/10/17 04:43:08;;;;;;;7.75;5.55;;;;;;;;;;5073993;28;20555;-53
2021/10/17 04:45:37;;;;;;;8.23;5.65;;;;;;;;;;5067707;28;20036;-51
2021/10/17 04:48:03;;;;;;;9.82;5.45;;;;;;;;;;5067321;28;20107;-53
2021/10/17 04:50:30;;;;;;;8.85;5.30;;;;;;;;;;5066901;28;20036;-52
2021/10/17 04:52:56;;;;;;;9.23;6.13;;;;;;;;;;5067235;28;20021;-52
2021/10/17 04:55:22;;;;;;;9.30;5.75;;;;;;;;;;5067038;28;20032;-53
2021/10/17 04:57:48;;;;;;;9.93;6.78;;;;;;;;;;5069889;28;20036;-52
2021/10/17 05:00:14;;;;;;;9.27;5.80;;;;;;;;;;5087501;28;20537;-50
2021/10/17 05:02:40;;;;;;;12.40;7.65;;;;;;;;;;5078182;28;20103;-52
2021/10/17 05:05:07;;;;;;;11.23;7.35;;;;;;;;;;5066825;28;20036;-52
2021/10/17 05:07:33;;;;;;;11.38;6.90;;;;;;;;;;5067233;28;20032;-52
2021/10/17 05:09:59;;;;;;;11.40;6.78;;;;;;;;;;5066007;28;20048;-52
2021/10/17 05:12:26;;;;;;;9.68;6.60;;;;;;;;;;5080441;28;20025;-53
2021/10/17 05:14:52;;;;;;;11.45;7.13;;;;;;;;;;5076413;28;20028;-52
2021/10/17 05:17:18;;;;;;;10.43;6.85;;;;;;;;;;5078689;28;20058;-52
2021/10/17 05:19:44;;;;;;;10.15;7.03;;;;;;;;;;5066832;28;20103;-53
2021/10/17 05:22:10;;;;;;;9.23;6.47;;;;;;;;;;5065511;28;20029;-53
2021/10/17 05:24:36;;;;;;;9.45;6.03;;;;;;;;;;5066761;28;20024;-51
2021/10/17 05:27:02;;;;;;;7.38;5.22;;;;;;;;;;5066275;28;20150;-52
2021/10/17 05:29:28;;;;;;;9.98;5.72;;;;;;;;;;5066724;28;20059;-54
2021/10/17 05:31:54;;;;;;;8.20;5.95;;;;;;;;;;5066976;28;20519;-53
2021/10/17 05:34:20;;;;;;;9.48;5.97;;;;;;;;;;5066412;28;20052;-54
2021/10/17 05:36:46;;;;;;;8.13;5.60;;;;;;;;;;5067138;28;20517;-54
2021/10/17 05:39:13;;;;;;;7.82;5.63;;;;;;;;;;5065980;28;20107;-53
2021/10/17 05:41:39;;;;;;;8.63;5.57;;;;;;;;;;5066587;28;20119;-52
2021/10/17 05:44:05;;;;;;;8.02;5.35;;;;;;;;;;5066984;28;20536;-53
2021/10/17 05:46:31;;;;;;;7.63;5.18;;;;;;;;;;5070560;28;20024;-53
2021/10/17 05:48:57;;;;;;;7.78;5.38;;;;;;;;;;5086026;28;20047;-53
2021/10/17 05:51:23;;;;;;;7.60;5.38;;;;;;;;;;5081381;28;20574;-52
2021/10/17 05:53:49;;;;;;;7.30;4.68;;;;;;;;;;5067893;28;20111;-53
2021/10/17 05:56:15;;;;;;;7.72;5.28;;;;;;;;;;5066312;28;20090;-53
2021/10/17 05:58:41;;;;;;;6.25;4.80;;;;;;;;;;5078133;28;20035;-53
2021/10/17 06:01:07;;;;;;;6.05;4.57;;;;;;;;;;5086053;28;20395;-53
2021/10/17 06:03:33;;;;;;;6.13;4.13;;;;;;;;;;5086733;28;20422;-53
2021/10/17 06:06:02;;;;;;;5.93;4.50;;;;;;;;;;5086666;28;20495;-53
2021/10/17 06:08:34;;;;;;;6.22;4.38;;;;;;;;;;5085703;28;20031;-53
2021/10/17 06:11:00;;;;;;;5.95;4.15;;;;;;;;;;5086508;28;20032;-54
2021/10/17 06:13:26;;;;;;;5.50;4.15;;;;;;;;;;5086590;28;20493;-53
2021/10/17 06:15:52;;;;;;;5.88;3.85;;;;;;;;;;5084938;28;20024;-52
2021/10/17 06:18:18;;;;;;;5.63;4.05;;;;;;;;;;5067112;28;20036;-53
2021/10/17 06:20:45;;;;;;;6.10;4.50;;;;;;;;;;5068584;28;20052;-52
2021/10/17 06:23:11;;;;;;;5.85;4.43;;;;;;;;;;5088113;28;20460;-54
2021/10/17 06:25:37;;;;;;;5.85;4.65;;;;;;;;;;5090557;28;20497;-53
2021/10/17 06:28:03;;;;;;;7.47;5.03;;;;;;;;;;5073016;28;20093;-53
2021/10/17 06:30:29;;;;;;;6.75;4.68;;;;;;;;;;5069834;28;20028;-54
2021/10/17 06:32:55;;;;;;;6.07;4.55;;;;;;;;;;5070770;28;20371;-54
2021/10/17 06:35:21;;;;;;;6.45;4.25;;;;;;;;;;5070514;28;20028;-53
2021/10/17 06:37:47;;;;;;;7.57;4.72;;;;;;;;;;5082774;28;20463;-52
2021/10/17 06:40:13;;;;;;;6.60;4.65;;;;;;;;;;5089877;28;20502;-53
2021/10/17 06:42:39;;;;;;;5.47;4.65;;;;;;;;;;5090333;28;20046;-54
2021/10/17 06:45:05;;;;;;;6.43;5.18;;;;;;;;;;5089733;28;20069;-51
2021/10/17 06:47:31;;;;;;;6.28;4.88;;;;;;;;;;5078341;28;20032;-52
2021/10/17 06:49:57;;;;;;;6.05;4.65;;;;;;;;;;5069195;28;20655;-53
2021/10/17 06:52:23;;;;;;;6.82;4.82;;;;;;;;;;5071065;28;20376;-53
2021/10/17 06:54:49;;;;;;;6.25;4.80;;;;;;;;;;5088103;28;20443;-53
2021/10/17 06:57:15;;;;;;;6.32;5.00;;;;;;;;;;5089782;28;21028;-54
2021/10/17 06:59:41;;;;;;;6.68;5.13;;;;;;;;;;5089535;28;20390;-53
2021/10/17 07:02:08;;;;;;;6.50;4.85;;;;;;;;;;5089185;28;20489;-54
2021/10/17 07:04:34;;;;;;;6.88;5.10;;;;;;;;;;5080383;28;20124;-52
2021/10/17 07:07:00;;;;;;;7.07;5.25;;;;;;;;;;5080839;28;20028;-54
2021/10/17 07:09:26;;;;;;;8.68;6.03;;;;;;;;;;5099436;28;20077;-53
2021/10/17 07:11:52;;;;;;;8.85;5.93;;;;;;;;;;5090087;28;20387;-53
2021/10/17 07:14:18;;;;;;;6.57;4.88;;;;;;;;;;5089482;28;20453;-53
2021/10/17 07:16:45;;;;;;;6.20;4.38;;;;;;;;;;5088381;28;20043;-54
2021/10/17 07:19:11;;;;;;;6.82;5.03;;;;;;;;;;5089275;28;20027;-54
2021/10/17 07:21:37;;;;;;;6.28;4.63;;;;;;;;;;5089310;28;20025;-53
2021/10/17 07:24:04;;;;;;;5.97;4.53;;;;;;;;;;5080574;28;20016;-53
2021/10/17 07:26:30;;;;;;;7.05;4.80;;;;;;;;;;5081714;28;20032;-52
2021/10/17 07:28:56;;;;;;;6.82;4.82;;;;;;;;;;5085006;28;20021;-54
2021/10/17 07:31:22;;;;;;;5.78;4.32;;;;;;;;;;5070564;28;20047;-54
2021/10/17 07:33:48;;;;;;;6.15;4.63;;;;;;;;;;5087523;28;20031;-53
2021/10/17 07:36:14;;;;;;;5.40;4.13;;;;;;;;;;5087151;28;20499;-53
2021/10/17 07:38:40;;;;;;;6.28;4.60;;;;;;;;;;5068668;28;20614;-53
2021/10/17 07:41:06;;;;;;;7.40;4.93;;;;;;;;;;5068651;28;20070;-53
2021/10/17 07:43:32;;;;;;;6.18;4.55;;;;;;;;;;5084331;28;20491;-54
2021/10/17 07:46:02;;;;;;;6.05;4.30;;;;;;;;;;5087819;28;20055;-52
2021/10/17 07:48:29;;;;;;;6.30;4.95;;;;;;;;;;5082606;28;20634;-53
2021/10/17 07:50:55;;;;;;;5.40;4.07;;;;;;;;;;5076214;28;20063;-53
2021/10/17 07:53:21;;;;;;;6.18;4.68;;;;;;;;;;5079095;28;20047;-54
2021/10/17 07:55:47;;;;;;;5.72;4.75;;;;;;;;;;5084395;28;20036;-52
2021/10/17 07:58:13;;;;;;;6.40;4.70;;;;;;;;;;5085644;28;20498;-54
2021/10/17 08:00:39;;;;;;;6.18;4.75;;;;;;;;;;5073505;28;20819;-53
2021/10/17 08:03:05;;;;;;;6.85;5.22;;;;;;;;;;5088529;28;20073;-53
2021/10/17 08:05:31;;;;;;;6.95;4.90;;;;;;;;;;5087667;28;20051;-53
2021/10/17 08:07:57;;;;;;;6.82;4.93;;;;;;;;;;5070487;28;20024;-54
2021/10/17 08:10:23;;;;;;;6.78;4.97;;;;;;;;;;5072869;28;20396;-50
2021/10/17 08:12:49;;;;;;;6.80;4.95;;;;;;;;;;5078025;28;20039;-54
2021/10/17 08:15:15;;;;;;;6.57;4.80;;;;;;;;;;5072704;28;20372;-53
2021/10/17 08:17:42;;;;;;;7.78;5.50;;;;;;;;;;5080057;28;20076;-53
2021/10/17 08:20:08;;;;;;;7.50;5.60;;;;;;;;;;5081103;28;20668;-54
2021/10/17 08:22:35;;;;;;;7.35;5.57;;;;;;;;;;5089112;28;20101;-52
2021/10/17 08:25:01;;;;;;;6.82;4.82;;;;;;;;;;5077870;28;20643;-55
2021/10/17 08:27:27;;;;;;;6.10;4.53;;;;;;;;;;5071250;28;20103;-54
2021/10/17 08:29:54;;;;;;;6.70;5.00;;;;;;;;;;5068157;28;20047;-54
2021/10/17 08:32:20;;;;;;;5.65;4.32;;;;;;;;;;5082262;28;20442;-52
2021/10/17 08:34:46;;;;;;;6.07;4.57;;;;;;;;;;5101240;28;20027;-53
2021/10/17 08:37:12;;;;;;;6.38;4.47;;;;;;;;;;5094413;28;20101;-54
2021/10/17 08:39:39;;;;;;;7.05;5.00;;;;;;;;;;5087732;28;20028;-53
2021/10/17 08:42:05;;;;;;;5.57;4.20;;;;;;;;;;5079199;28;20067;-54
2021/10/17 08:44:33;;;;;;;6.53;4.78;;;;;;;;;;5067392;28;20033;-54
2021/10/17 08:47:00;;;;;;;6.15;4.30;;;;;;;;;;5077163;28;20028;-51
2021/10/17 08:49:27;;;;;;;6.80;4.85;;;;;;;;;;5073628;28;20032;-55
2021/10/17 08:51:53;;;;;;;6.53;4.70;;;;;;;;;;5083683;28;20044;-55
2021/10/17 08:54:19;;;;;;;8.02;5.20;;;;;;;;;;5087346;28;20097;-54
2021/10/17 08:56:45;;;;;;;6.75;4.75;;;;;;;;;;5088262;28;20073;-54
2021/10/17 08:59:12;;;;;;;7.93;5.47;;;;;;;;;;5068405;28;20031;-54
2021/10/17 09:01:38;;;;;;;6.55;5.20;;;;;;;;;;5068691;28;20029;-54
2021/10/17 09:04:10;;;;;;;7.47;5.07;;;;;;;;;;5068465;28;20025;-54
2021/10/17 09:06:37;;;;;;;6.55;4.82;;;;;;;;;;5066709;28;20513;-54
2021/10/17 09:09:15;;;;;;;6.68;4.60;;;;;;;;;;5067606;28;20025;-52
2021/10/17 09:11:41;;;;;;;6.57;5.05;;;;;;;;;;5069346;28;20077;-54
2021/10/17 09:14:10;;;;;;;8.50;5.63;;;;;;;;;;5067889;28;20506;-54
2021/10/17 09:16:38;;;;;;;7.50;5.25;;;;;;;;;;5068366;28;20101;-52
2021/10/17 09:19:16;;;;;;;6.47;4.78;;;;;;;;;;5067576;28;20021;-54
2021/10/17 09:21:54;;;;;;;7.80;5.25;;;;;;;;;;5067273;28;20021;-54
2021/10/17 09:24:28;;;;;;;6.93;5.13;;;;;;;;;;5069204;28;20033;-53
2021/10/17 09:27:13;;;;;;;5.93;4.43;;;;;;;;;;5087689;28;20024;-53
2021/10/17 09:29:40;;;;;;;6.20;4.57;;;;;;;;;;5087951;28;20885;-55
2021/10/17 09:32:11;;;;;;;7.55;5.40;;;;;;;;;;5081951;28;20410;-55
2021/10/17 09:34:37;;;;;;;6.30;4.63;;;;;;;;;;5083910;28;20035;-53
2021/10/17 09:37:06;;;;;;;6.93;4.90;;;;;;;;;;5090743;28;20449;-54
2021/10/17 09:39:35;;;;;;;7.15;4.82;;;;;;;;;;5071943;28;20052;-54
2021/10/17 09:42:02;;;;;;;6.53;4.85;;;;;;;;;;5078200;28;20020;-54
2021/10/17 09:44:42;;;;;;;6.95;4.75;;;;;;;;;;5067399;28;20476;-52
2021/10/17 09:47:08;;;;;;;6.07;4.25;;;;;;;;;;5067797;28;20044;-54
2021/10/17 09:49:34;;;;;;;6.85;4.57;;;;;;;;;;5066980;28;20024;-54
2021/10/17 09:52:10;;;;;;;6.40;4.40;;;;;;;;;;5066528;28;20444;-54
2021/10/17 09:54:40;;;;;;;5.85;4.38;;;;;;;;;;5073984;28;20100;-54
2021/10/17 09:57:07;;;;;;;6.75;4.55;;;;;;;;;;5067311;28;20025;-54
2021/10/17 09:59:34;;;;;;;5.10;3.70;;;;;;;;;;5077159;28;20020;-54
2021/10/17 10:02:01;;;;;;;6.18;4.18;;;;;;;;;;5086659;28;20032;-55
2021/10/17 10:04:28;;;;;;;5.30;3.78;;;;;;;;;;5086816;28;20505;-54
2021/10/17 10:06:55;;;;;;;6.43;4.25;;;;;;;;;;5068666;28;20059;-52
2021/10/17 10:09:22;;;;;;;5.90;4.20;;;;;;;;;;5083965;28;20032;-54
2021/10/17 10:11:48;;;;;;;4.63;3.35;;;;;;;;;;5069183;28;20478;-54
2021/10/17 10:14:14;;;;;;;5.07;3.63;;;;;;;;;;5082326;28;20031;-55
2021/10/17 10:16:41;;;;;;;6.15;3.95;;;;;;;;;;5087992;28;20486;-53
2021/10/17 10:19:14;;;;;;;5.88;4.10;;;;;;;;;;5068567;28;20017;-54
2021/10/17 10:21:40;;;;;;;6.40;4.10;;;;;;;;;;5065430;28;20055;-55
2021/10/17 10:24:08;;;;;;;4.40;3.45;;;;;;;;;;5067837;28;20458;-53
2021/10/17 10:26:35;;;;;;;5.03;3.67;;;;;;;;;;5086998;28;20028;-54
2021/10/17 10:29:01;;;;;;;5.00;3.70;;;;;;;;;;5086325;28;20027;-53
2021/10/17 10:31:46;;;;;;;6.18;3.45;;;;;;;;;;5086583;28;20103;-55
2021/10/17 10:34:12;;;;;;;;;;;;;;;;;;5074212;28;20402;-55
2021/10/17 10:36:46;;;;;;;5.45;3.80;;;;;;;;;;5067159;28;20000;-53
2021/10/17 10:39:14;;;;;;;4.20;3.25;;;;;;;;;;5066449;28;20040;-55
2021/10/17 10:41:49;;;;;;;4.90;3.63;;;;;;;;;;5080265;28;20033;-55
2021/10/17 10:44:20;;;;;;;5.10;3.90;;;;;;;;;;5078268;28;20028;-53
2021/10/17 10:46:46;;;;;;;4.82;3.45;;;;;;;;;;5085353;28;20043;-53
2021/10/17 10:49:12;;;;;;;4.00;2.95;;;;;;;;;;5069117;28;20504;-52
2021/10/17 10:51:40;;;;;;;5.05;3.40;;;;;;;;;;5078189;28;20046;-54
2021/10/17 10:54:26;;;;;;;4.93;3.67;;;;;;;;;;5083126;28;20031;-54
2021/10/17 10:56:53;;;;;;;4.20;3.38;;;;;;;;;;5063989;28;20583;-53
2021/10/17 10:59:22;;;;;;;4.05;3.08;;;;;;;;;;5066364;28;20491;-54
2021/10/17 11:01:52;;;;;;;3.47;2.92;;;;;;;;;;5073120;28;20016;-53
2021/10/17 11:04:36;;;;;;;4.50;3.05;;;;;;;;;;5077970;28;20086;-53
2021/10/17 11:07:18;;;;;;;3.85;3.05;;;;;;;;;;5076252;28;20024;-53
2021/10/17 11:09:44;;;;;;;3.88;3.15;;;;;;;;;;5073306;28;20431;-54
2021/10/17 11:12:11;;;;;;;3.97;3.03;;;;;;;;;;5074967;28;20146;-54
2021/10/17 11:14:37;;;;;;;4.30;3.15;;;;;;;;;;5077863;28;20028;-53
2021/10/17 11:17:07;;;;;;;3.22;2.55;;;;;;;;;;5085590;28;20382;-54
2021/10/17 11:19:36;;;;;;;3.90;3.00;;;;;;;;;;5088970;28;20031;-52
2021/10/17 11:22:03;;;;;;;2.90;2.60;;;;;;;;;;5084195;28;20498;-54
2021/10/17 11:24:30;;;;;;;4.10;2.92;;;;;;;;;;5070046;28;20024;-52
2021/10/17 11:27:13;;;;;;;4.85;3.42;;;;;;;;;;5074069;28;20377;-53
2021/10/17 11:29:40;;;;;;;4.05;3.20;;;;;;;;;;5074166;28;20070;-52
2021/10/17 11:32:09;;;;;;;3.47;2.75;;;;;;;;;;5081382;28;20021;-53
2021/10/17 11:34:36;;;;;;;3.83;3.03;;;;;;;;;;5085156;28;20494;-54
2021/10/17 11:37:18;;;;;;;3.95;3.03;;;;;;;;;;5081517;28;20024;-53
2021/10/17 11:39:57;;;;;;;4.30;3.35;;;;;;;;;;5080602;28;20045;-54
2021/10/17 11:42:27;;;;;;;4.95;3.83;;;;;;;;;;5082068;28;20031;-53
2021/10/17 11:44:55;;;;;;;5.32;4.20;;;;;;;;;;5084170;28;20071;-54
2021/10/17 11:47:22;;;;;;;4.28;3.60;;;;;;;;;;5078278;28;20391;-54
2021/10/17 11:49:48;;;;;;;4.53;3.53;;;;;;;;;;5077752;28;20028;-53
2021/10/17 11:52:15;;;;;;;3.70;3.00;;;;;;;;;;5079427;28;20103;-54
2021/10/17 11:54:42;;;;;;;3.60;2.92;;;;;;;;;;5068825;28;20031;-55
2021/10/17 11:57:09;;;;;;;3.25;2.70;;;;;;;;;;5084938;28;20027;-53
2021/10/17 11:59:35;;;;;;;3.80;3.15;;;;;;;;;;5087669;28;20115;-54
2021/10/17 12:02:01;;;;;;;3.25;2.65;;;;;;;;;;5087825;28;20043;-54
2021/10/17 12:04:43;;;;;;;3.00;2.58;;;;;;;;;;5088850;28;20026;-54
2021/10/17 12:07:09;;;;;;;3.17;2.70;;;;;;;;;;5079919;28;20624;-53
2021/10/17 12:09:35;;;;;;;4.63;2.70;;;;;;;;;;5073245;28;20398;-54
2021/10/17 12:12:01;;;;;;;4.90;3.50;;;;;;;;;;5068180;28;20021;-53
2021/10/17 12:14:28;;;;;;;5.35;3.00;;;;;;;;;;5075039;28;20100;-54
2021/10/17 12:16:55;;;;;;;3.85;3.28;;;;;;;;;;5073227;28;20297;-55
2021/10/17 12:19:26;;;;;;;4.32;3.08;;;;;;;;;;5087531;28;20502;-54
2021/10/17 12:21:52;;;;;;;5.15;3.45;;;;;;;;;;5087626;28;20403;-53
2021/10/17 12:24:21;;;;;;;3.95;3.20;;;;;;;;;;5087443;28;20036;-54
2021/10/17 12:26:55;;;;;;;5.13;3.50;;;;;;;;;;5087301;28;20040;-53
2021/10/17 12:29:25;;;;;;;3.78;3.17;;;;;;;;;;5087251;28;20028;-53
2021/10/17 12:31:51;;;;;;;3.50;2.90;;;;;;;;;;5086905;28;20032;-54
2021/10/17 12:34:20;;;;;;;2.78;2.47;;;;;;;;;;5086982;28;20038;-53
2021/10/17 12:36:47;;;;;;;2.92;2.40;;;;;;;;;;5086888;28;20704;-53
2021/10/17 12:39:14;;;;;;;3.30;2.45;;;;;;;;;;5084735;28;20403;-53
2021/10/17 12:41:40;;;;;;;5.45;3.85;;;;;;;;;;5087464;28;20032;-54
2021/10/17 12:44:10;;;;;;;4.22;3.30;;;;;;;;;;5087605;28;20017;-54
2021/10/17 12:46:37;;;;;;;3.90;3.10;;;;;;;;;;5087647;28;20032;-53
2021/10/17 12:49:10;;;;;;;3.20;2.60;;;;;;;;;;5086391;28;20030;-53
2021/10/17 12:51:46;;;;;;;3.05;2.75;;;;;;;;;;5087750;28;20035;-53
2021/10/17 12:54:25;;;;;;;2.95;2.65;;;;;;;;;;5086661;28;20027;-54
2021/10/17 12:56:51;;;;;;;4.97;3.17;;;;;;;;;;5086702;28;20487;-53
2021/10/17 12:59:21;;;;;;;2.63;2.40;;;;;;;;;;5086723;28;20024;-53
2021/10/17 13:02:16;;;;;;;3.20;2.80;;;;;;;;;;5086645;28;20506;-54
2021/10/17 13:04:48;;;;;;;2.92;2.63;;;;;;;;;;5081958;28;20088;-53
2021/10/17 13:07:15;;;;;;;2.97;2.60;;;;;;;;;;5086861;28;20031;-53
2021/10/17 13:09:49;;;;;;;3.95;3.00;;;;;;;;;;5086567;28;20078;-54
2021/10/17 13:12:16;;;;;;;3.00;2.43;;;;;;;;;;5086098;28;20051;-54
2021/10/17 13:15:00;;;;;;;3.03;2.60;;;;;;;;;;5075699;28;20039;-54
2021/10/17 13:17:26;;;;;;;;;;;;;;;;;;5066500;28;20044;-53
2021/10/17 13:19:54;;;;;;;3.70;2.88;;;;;;;;;;5065996;28;20409;-53
2021/10/17 13:22:20;;;;;;;4.05;2.88;;;;;;;;;;5065808;28;20085;-53
2021/10/17 13:24:46;;;;;;;3.03;2.67;;;;;;;;;;5066539;28;20051;-53
2021/10/17 13:27:12;;;;;;;2.72;2.42;;;;;;;;;;5065808;28;20021;-54
2021/10/17 13:29:40;;;;;;;2.35;2.15;;;;;;;;;;5066853;28;20484;-53
2021/10/17 13:32:06;;;;;;;4.38;3.20;;;;;;;;;;5065407;28;20020;-53
2021/10/17 13:34:32;;;;;;;3.20;2.30;;;;;;;;;;5066220;28;20089;-55
2021/10/17 13:36:58;;;;;;;3.20;2.80;;;;;;;;;;5065863;28;20020;-54
2021/10/17 13:39:24;;;;;;;3.85;2.97;;;;;;;;;;5065801;28;20542;-54
2021/10/17 13:41:50;;;;;;;2.90;2.47;;;;;;;;;;5065496;28;20549;-54
2021/10/17 13:44:17;;;;;;;3.40;2.20;;;;;;;;;;5065822;28;20479;-54
2021/10/17 13:46:43;;;;;;;2.50;2.22;;;;;;;;;;5065985;28;20027;-55
2021/10/17 13:49:10;;;;;;;2.95;2.30;;;;;;;;;;5066014;28;20039;-54
2021/10/17 13:51:37;;;;;;;2.92;2.58;;;;;;;;;;5066336;28;20049;-54
2021/10/17 13:54:03;;;;;;;3.17;2.30;;;;;;;;;;5071638;28;20027;-53
2021/10/17 13:56:29;;;;;;;2.60;2.20;;;;;;;;;;5085567;28;20032;-52
2021/10/17 13:58:55;;;;;;;2.38;2.17;;;;;;;;;;5085845;28;20032;-53
2021/10/17 14:01:22;;;;;;;2.28;2.08;;;;;;;;;;5085717;28;20020;-53
2021/10/17 14:03:48;;;;;;;2.67;2.05;;;;;;;;;;5085921;28;20020;-54
2021/10/17 14:06:14;;;;;;;2.85;2.25;;;;;;;;;;5085777;28;20076;-51
2021/10/17 14:08:40;;;;;;;2.20;1.92;;;;;;;;;;5086551;28;20150;-54
2021/10/17 14:11:08;;;;;;;2.70;2.10;;;;;;;;;;5083486;28;20500;-54
2021/10/17 14:13:34;;;;;;;2.90;2.17;;;;;;;;;;5074868;28;20115;-54
2021/10/17 14:16:00;;;;;;;2.92;2.25;;;;;;;;;;5063523;28;20352;-55
2021/10/17 14:18:26;;;;;;;2.30;2.10;;;;;;;;;;5065057;28;20338;-54
2021/10/17 14:20:54;;;;;;;2.85;2.25;;;;;;;;;;5065487;28;20028;-53
2021/10/17 14:23:20;;;;;;;2.15;1.83;;;;;;;;;;5065351;28;20525;-54
2021/10/17 14:25:46;;;;;;;1.92;1.77;;;;;;;;;;5065258;28;20048;-54
2021/10/17 14:28:12;;;;;;;1.73;1.55;;;;;;;;;;5065954;28;20056;-52
2021/10/17 14:30:41;;;;;;;3.47;2.33;;;;;;;;;;5065817;28;20501;-54
2021/10/17 14:33:07;;;;;;;2.20;1.70;;;;;;;;;;5065301;28;20044;-54
2021/10/17 14:35:33;;;;;;;2.00;1.80;;;;;;;;;;5065104;28;20029;-55
2021/10/17 14:37:59;;;;;;;1.83;1.73;;;;;;;;;;5065219;28;20029;-54
2021/10/17 14:40:26;;;;;;;2.05;1.70;;;;;;;;;;5063523;28;20411;-55